Time;durP1;ratioP1;P1;durP2;ratioP2;P2;SDS_P1;SDS_P2;PMS_P1;PMS_P2;Temp;Humidity;BMP_temperature;BMP_pressure;BME280_temperature;BME280_humidity;BME280_pressure;Samples;Min_cycle;Max_cycle;Signal;HPM_P1;HPM_P2
2022/07/07 00:00:18;;;;;;;7.43;1.95;;;18.70;99.90;;;;;;5052759;28;20087;-75
2022/07/07 00:02:45;;;;;;;3.40;1.52;;;18.60;99.90;;;;;;5053083;28;20061;-75
2022/07/07 00:05:13;;;;;;;7.63;2.60;;;18.60;99.90;;;;;;5070410;28;20087;-74
2022/07/07 00:07:42;;;;;;;3.70;1.85;;;18.60;99.90;;;;;;5035778;28;20147;-75
2022/07/07 00:10:10;;;;;;;7.88;2.65;;;18.60;99.90;;;;;;5070484;28;20044;-74
2022/07/07 00:12:38;;;;;;;6.90;1.80;;;18.50;99.90;;;;;;5036021;28;20072;-74
2022/07/07 00:15:07;;;;;;;7.70;2.30;;;18.50;99.90;;;;;;5052362;28;20052;-75
2022/07/07 00:17:34;;;;;;;4.68;2.05;;;18.40;99.90;;;;;;5070476;28;20072;-75
2022/07/07 00:20:02;;;;;;;6.93;2.30;;;18.40;99.90;;;;;;5070357;28;20052;-74
2022/07/07 00:22:30;;;;;;;5.63;2.03;;;18.40;99.90;;;;;;5070642;28;20084;-75
2022/07/07 00:24:59;;;;;;;6.72;2.30;;;18.40;99.90;;;;;;5052673;28;20045;-74
2022/07/07 00:27:26;;;;;;;14.35;2.60;;;18.50;99.90;;;;;;5070826;28;20059;-75
2022/07/07 00:29:54;;;;;;;4.97;2.15;;;18.40;99.90;;;;;;5035829;28;20036;-75
2022/07/07 00:32:21;;;;;;;11.90;2.92;;;18.40;99.90;;;;;;5052312;28;20049;-75
2022/07/07 00:34:49;;;;;;;11.13;3.05;;;18.40;99.90;;;;;;5035878;28;20041;-75
2022/07/07 00:37:16;;;;;;;12.77;3.03;;;18.40;99.90;;;;;;5070404;28;20048;-74
2022/07/07 00:39:44;;;;;;;22.30;3.90;;;18.40;99.90;;;;;;5052706;28;20062;-76
2022/07/07 00:42:16;;;;;;;13.18;2.95;;;18.40;99.90;;;;;;5051963;28;20044;-76
2022/07/07 00:44:44;;;;;;;17.50;3.65;;;18.40;99.90;;;;;;5070103;28;20048;-76
2022/07/07 00:47:13;;;;;;;12.52;3.58;;;18.30;99.90;;;;;;5073597;28;20091;-75
2022/07/07 00:49:42;;;;;;;16.02;3.75;;;18.30;99.90;;;;;;5039735;28;20094;-75
2022/07/07 00:52:11;;;;;;;24.15;3.25;;;18.30;99.90;;;;;;5055954;28;20048;-75
2022/07/07 00:54:38;;;;;;;17.20;3.70;;;18.30;99.90;;;;;;5056140;28;20048;-75
2022/07/07 00:57:07;;;;;;;15.27;3.53;;;18.30;99.90;;;;;;5055858;28;20423;-75
2022/07/07 00:59:36;;;;;;;14.20;3.38;;;18.30;99.90;;;;;;5055555;28;20062;-75
2022/07/07 01:02:04;;;;;;;12.60;3.33;;;18.30;99.90;;;;;;5073657;28;20539;-76
2022/07/07 01:04:31;;;;;;;12.43;3.63;;;18.30;99.90;;;;;;5073470;28;20068;-76
2022/07/07 01:06:59;;;;;;;15.00;4.60;;;18.30;99.90;;;;;;5056259;28;20428;-75
2022/07/07 01:09:27;;;;;;;14.35;4.28;;;18.30;99.90;;;;;;5055620;28;20910;-75
2022/07/07 01:11:56;;;;;;;15.45;4.43;;;18.30;99.90;;;;;;5073484;28;20051;-75
2022/07/07 01:14:25;;;;;;;12.30;4.53;;;18.30;99.90;;;;;;5055850;28;20045;-75
2022/07/07 01:16:54;;;;;;;15.40;5.22;;;18.20;99.90;;;;;;5055262;28;20044;-77
2022/07/07 01:19:23;;;;;;;13.95;5.25;;;18.20;99.90;;;;;;5073107;28;20045;-75
2022/07/07 01:21:55;;;;;;;13.15;4.47;;;18.20;99.90;;;;;;5073613;28;20581;-75
2022/07/07 01:24:26;;;;;;;13.98;4.20;;;18.20;99.90;;;;;;5073462;28;20044;-74
2022/07/07 01:27:05;;;;;;;19.13;5.22;;;18.10;99.90;;;;;;5073562;28;20106;-74
2022/07/07 01:29:36;;;;;;;8.98;4.28;;;18.10;99.90;;;;;;5055394;28;20045;-74
2022/07/07 01:32:04;;;;;;;14.63;4.60;;;18.10;99.90;;;;;;5073160;28;20056;-75
2022/07/07 01:34:32;;;;;;;11.45;4.90;;;18.10;99.90;;;;;;5088855;28;20036;-75
2022/07/07 01:36:59;;;;;;;12.10;5.03;;;18.10;99.90;;;;;;5073029;28;20098;-75
2022/07/07 01:39:28;;;;;;;16.60;4.93;;;18.00;99.90;;;;;;5055217;28;20538;-76
2022/07/07 01:41:56;;;;;;;18.67;4.45;;;18.10;99.90;;;;;;5055009;28;20059;-76
2022/07/07 01:44:23;;;;;;;11.80;5.07;;;18.10;99.90;;;;;;5072852;28;20401;-76
2022/07/07 01:46:51;;;;;;;14.52;5.15;;;18.10;99.90;;;;;;5054676;28;20053;-76
2022/07/07 01:49:19;;;;;;;13.68;5.15;;;18.10;99.90;;;;;;5037801;28;20571;-77
2022/07/07 01:51:46;;;;;;;10.82;4.53;;;18.10;99.90;;;;;;5054599;28;20072;-76
2022/07/07 01:54:13;;;;;;;13.70;6.10;;;18.10;99.90;;;;;;5073036;28;20041;-76
2022/07/07 01:56:45;;;;;;;14.73;5.85;;;18.10;99.90;;;;;;5055121;28;20075;-76
2022/07/07 01:59:13;;;;;;;13.15;5.35;;;18.10;99.90;;;;;;5072347;28;20051;-76
2022/07/07 02:01:41;;;;;;;13.18;5.93;;;18.10;99.90;;;;;;5037347;28;20630;-75
2022/07/07 02:04:08;;;;;;;10.90;4.85;;;18.10;99.90;;;;;;5072706;28;20048;-75
2022/07/07 02:06:37;;;;;;;17.20;5.20;;;18.20;99.90;;;;;;5072469;28;20045;-75
2022/07/07 02:09:05;;;;;;;17.80;6.68;;;18.20;99.90;;;;;;5054083;28;20060;-75
2022/07/07 02:11:33;;;;;;;19.48;6.18;;;18.20;99.90;;;;;;5037828;28;20052;-75
2022/07/07 02:14:02;;;;;;;9.30;5.47;;;18.10;99.90;;;;;;5072356;28;20048;-75
2022/07/07 02:16:30;;;;;;;9.98;5.75;;;18.20;99.90;;;;;;5072522;28;20151;-74
2022/07/07 02:18:59;;;;;;;12.13;5.95;;;18.20;99.90;;;;;;5037892;28;20051;-74
2022/07/07 02:21:27;;;;;;;8.70;5.07;;;18.20;99.90;;;;;;5072533;28;20048;-75
2022/07/07 02:23:56;;;;;;;16.60;5.63;;;18.20;99.90;;;;;;5054483;28;20633;-75
2022/07/07 02:26:24;;;;;;;16.20;5.78;;;18.20;99.90;;;;;;5037762;28;20419;-76
2022/07/07 02:28:51;;;;;;;12.32;5.43;;;18.20;99.90;;;;;;5054038;28;20135;-75
2022/07/07 02:31:21;;;;;;;15.40;5.05;;;18.30;99.90;;;;;;5054176;28;20102;-76
2022/07/07 02:33:48;;;;;;;9.35;5.50;;;18.30;99.90;;;;;;5053883;28;20479;-76
2022/07/07 02:36:16;;;;;;;15.75;6.13;;;18.30;99.90;;;;;;5054147;28;20044;-75
2022/07/07 02:38:43;;;;;;;17.13;6.80;;;18.30;99.90;;;;;;5054302;28;20051;-76
2022/07/07 02:41:10;;;;;;;14.05;5.95;;;18.40;99.90;;;;;;5054310;28;20094;-75
2022/07/07 02:43:38;;;;;;;17.92;6.43;;;18.40;99.90;;;;;;5053982;28;20068;-76
2022/07/07 02:46:05;;;;;;;18.92;7.18;;;18.40;99.90;;;;;;5054059;28;20048;-74
2022/07/07 02:48:34;;;;;;;17.23;6.75;;;18.40;99.90;;;;;;5037374;28;20048;-75
2022/07/07 02:51:02;;;;;;;19.40;5.85;;;18.40;99.90;;;;;;5071743;28;20076;-75
2022/07/07 02:53:29;;;;;;;13.73;5.55;;;18.50;99.90;;;;;;5071734;28;20056;-75
2022/07/07 02:55:57;;;;;;;17.08;6.35;;;18.60;99.90;;;;;;5070997;28;20052;-75
2022/07/07 02:58:24;;;;;;;17.90;6.30;;;18.50;99.90;;;;;;5071713;28;20049;-75
2022/07/07 03:00:54;;;;;;;15.38;6.05;;;18.60;99.90;;;;;;5071395;28;20151;-75
2022/07/07 03:03:22;;;;;;;25.70;6.75;;;18.60;99.90;;;;;;5037303;28;20067;-75
2022/07/07 03:05:51;;;;;;;20.63;6.53;;;18.70;99.90;;;;;;5053649;28;20451;-76
2022/07/07 03:08:19;;;;;;;18.83;5.97;;;18.70;99.90;;;;;;5071190;28;20056;-76
2022/07/07 03:10:46;;;;;;;36.40;6.32;;;18.70;99.90;;;;;;5070814;28;20090;-75
2022/07/07 03:13:14;;;;;;;25.08;5.60;;;18.80;99.90;;;;;;5071283;28;20076;-76
2022/07/07 03:15:41;;;;;;;20.02;5.32;;;18.80;99.90;;;;;;5071256;28;20048;-76
2022/07/07 03:18:09;;;;;;;25.23;4.80;;;18.90;99.90;;;;;;5071529;28;20105;-75
2022/07/07 03:20:37;;;;;;;15.63;5.05;;;18.90;99.90;;;;;;5071290;28;20058;-76
2022/07/07 03:23:05;;;;;;;30.50;5.65;;;19.00;99.90;;;;;;5053394;28;20059;-75
2022/07/07 03:25:34;;;;;;;18.08;5.47;;;19.00;99.90;;;;;;5071306;28;20057;-75
2022/07/07 03:28:01;;;;;;;20.45;5.93;;;19.00;99.90;;;;;;5053237;28;20048;-76
2022/07/07 03:30:29;;;;;;;27.98;5.85;;;19.10;99.90;;;;;;5069802;28;20531;-76
2022/07/07 03:32:56;;;;;;;27.13;5.43;;;19.20;99.90;;;;;;5053010;28;20105;-76
2022/07/07 03:35:24;;;;;;;28.75;6.28;;;19.20;99.90;;;;;;5071232;28;20453;-76
2022/07/07 03:37:51;;;;;;;26.95;6.07;;;19.30;99.90;;;;;;5036160;28;20500;-76
2022/07/07 03:40:23;;;;;;;28.58;6.15;;;19.40;99.90;;;;;;5052672;28;20137;-76
2022/07/07 03:42:51;;;;;;;32.63;6.40;;;19.50;99.90;;;;;;5070855;28;20450;-76
2022/07/07 03:45:18;;;;;;;18.83;5.60;;;19.60;99.90;;;;;;5052769;28;20151;-77
2022/07/07 03:47:46;;;;;;;18.65;5.45;;;19.60;99.90;;;;;;5070725;28;20132;-77
2022/07/07 03:50:13;;;;;;;18.27;3.70;;;19.70;99.90;;;;;;5052423;28;20040;-74
2022/07/07 03:52:41;;;;;;;9.23;3.20;;;19.70;99.90;;;;;;5052635;28;20142;-74
2022/07/07 03:55:10;;;;;;;5.80;2.63;;;19.80;99.90;;;;;;5052326;28;20059;-75
2022/07/07 03:57:39;;;;;;;5.53;2.67;;;20.00;99.90;;;;;;5035945;28;20045;-75
2022/07/07 04:00:08;;;;;;;4.45;2.00;;;20.10;99.90;;;;;;5070588;28;20579;-75
2022/07/07 04:02:38;;;;;;;8.00;2.22;;;20.40;99.90;;;;;;5070503;28;20048;-75
2022/07/07 04:05:06;;;;;;;5.57;1.90;;;20.60;99.90;;;;;;5070191;28;20052;-75
2022/07/07 04:07:34;;;;;;;5.03;1.58;;;20.70;99.90;;;;;;5069737;28;20056;-75
2022/07/07 04:10:02;;;;;;;3.75;1.65;;;20.90;99.90;;;;;;5069978;28;20044;-75
2022/07/07 04:12:31;;;;;;;2.90;1.35;;;21.00;99.90;;;;;;5069894;28;20138;-75
2022/07/07 04:15:00;;;;;;;4.93;1.65;;;21.20;99.90;;;;;;5070496;28;20488;-75
2022/07/07 04:17:27;;;;;;;3.30;1.77;;;21.20;99.90;;;;;;5070445;28;20049;-75
2022/07/07 04:19:55;;;;;;;3.28;1.48;;;21.20;99.90;;;;;;5070483;28;20504;-75
2022/07/07 04:22:22;;;;;;;5.03;1.55;;;21.20;99.90;;;;;;5035130;28;20052;-75
2022/07/07 04:24:50;;;;;;;3.38;1.30;;;21.20;99.90;;;;;;5036074;28;20476;-76
2022/07/07 04:27:17;;;;;;;2.58;1.30;;;21.20;99.90;;;;;;5035540;28;20080;-76
2022/07/07 04:29:45;;;;;;;3.65;1.15;;;21.20;99.90;;;;;;5070035;28;20151;-73
2022/07/07 04:32:14;;;;;;;4.95;1.52;;;21.20;99.90;;;;;;5052008;28;20151;-75
2022/07/07 04:34:41;;;;;;;2.53;1.20;;;21.20;99.90;;;;;;5051433;28;20471;-75
2022/07/07 04:37:09;;;;;;;3.35;1.40;;;21.20;99.90;;;;;;5068957;28;20070;-76
2022/07/07 04:39:37;;;;;;;1.48;1.35;;;21.10;99.90;;;;;;5070064;28;20096;-77
2022/07/07 04:42:05;;;;;;;1.70;0.93;;;21.10;99.90;;;;;;5069802;28;20052;-76
2022/07/07 04:44:32;;;;;;;3.08;1.00;;;21.10;99.90;;;;;;5069906;28;20068;-76
2022/07/07 04:47:00;;;;;;;2.10;0.95;;;21.20;99.90;;;;;;5070053;28;20083;-75
2022/07/07 04:49:29;;;;;;;5.93;2.10;;;21.10;99.90;;;;;;5069869;28;20060;-77
2022/07/07 04:51:56;;;;;;;1.42;0.90;;;21.10;99.90;;;;;;5070005;28;20053;-76
2022/07/07 04:54:24;;;;;;;6.20;1.08;;;21.20;99.90;;;;;;5070172;28;20053;-76
2022/07/07 04:56:52;;;;;;;1.85;1.40;;;21.20;99.90;;;;;;5051921;28;20131;-76
2022/07/07 04:59:19;;;;;;;2.40;1.45;;;21.20;99.90;;;;;;5035108;28;20060;-75
2022/07/07 05:01:47;;;;;;;6.18;1.20;;;21.10;99.90;;;;;;5069210;28;20539;-76
2022/07/07 05:04:14;;;;;;;7.13;1.17;;;21.10;99.90;;;;;;5051932;28;20121;-76
2022/07/07 05:06:43;;;;;;;3.05;0.80;;;21.10;99.90;;;;;;5069772;28;20048;-76
2022/07/07 05:09:11;;;;;;;3.28;1.83;;;21.10;99.90;;;;;;5069876;28;20061;-76
2022/07/07 05:11:38;;;;;;;4.88;1.15;;;21.10;99.90;;;;;;5051913;28;20048;-75
2022/07/07 05:14:06;;;;;;;6.32;1.75;;;21.10;99.90;;;;;;5070322;28;20044;-74
2022/07/07 05:16:33;;;;;;;6.45;1.60;;;21.20;99.90;;;;;;5035009;28;20412;-74
2022/07/07 05:19:01;;;;;;;4.50;1.20;;;21.20;99.90;;;;;;5035167;28;20508;-74
2022/07/07 05:21:29;;;;;;;5.70;1.88;;;21.20;99.90;;;;;;5035022;28;20044;-75
2022/07/07 05:23:58;;;;;;;3.20;1.58;;;21.30;99.90;;;;;;5069798;28;20526;-75
2022/07/07 05:26:25;;;;;;;2.72;1.38;;;21.40;99.90;;;;;;5069807;28;20530;-75
2022/07/07 05:28:53;;;;;;;6.65;2.20;;;21.50;99.90;;;;;;5051781;28;20507;-75
2022/07/07 05:31:20;;;;;;;7.68;1.60;;;21.50;99.90;;;;;;5069729;28;20147;-74
2022/07/07 05:33:48;;;;;;;2.88;1.20;;;21.50;99.90;;;;;;5071717;28;20131;-74
2022/07/07 05:36:15;;;;;;;5.97;2.15;;;21.60;99.90;;;;;;5072872;28;20522;-76
2022/07/07 05:38:45;;;;;;;4.32;1.70;;;21.60;99.90;;;;;;5055283;28;20094;-74
2022/07/07 05:41:14;;;;;;;4.10;1.08;;;21.60;99.90;;;;;;5072334;28;20053;-74
2022/07/07 05:43:41;;;;;;;1.42;1.20;;;21.60;99.90;;;;;;5072966;28;20458;-74
2022/07/07 05:46:09;;;;;;;5.60;1.80;;;21.50;99.90;;;;;;5072444;28;20511;-74
2022/07/07 05:48:36;;;;;;;4.15;1.70;;;21.50;99.90;;;;;;5054673;28;20470;-75
2022/07/07 05:51:04;;;;;;;5.22;1.52;;;21.50;99.90;;;;;;5038686;28;20045;-75
2022/07/07 05:53:31;;;;;;;8.52;1.88;;;21.50;99.90;;;;;;5072712;28;20140;-74
2022/07/07 05:55:59;;;;;;;3.67;1.83;;;21.60;99.90;;;;;;5072555;28;20063;-75
2022/07/07 05:58:28;;;;;;;4.50;1.63;;;21.60;99.90;;;;;;5055106;28;20055;-74
2022/07/07 06:00:56;;;;;;;9.93;2.42;;;21.60;99.90;;;;;;5072016;28;20059;-75
2022/07/07 06:03:24;;;;;;;3.72;1.90;;;21.60;99.90;;;;;;5054520;28;20064;-75
2022/07/07 06:05:51;;;;;;;3.90;2.03;;;21.60;99.90;;;;;;5072589;28;20055;-76
2022/07/07 06:08:19;;;;;;;4.75;1.75;;;21.60;99.90;;;;;;5054369;28;20033;-75
2022/07/07 06:10:46;;;;;;;4.88;1.98;;;21.50;99.90;;;;;;5071995;28;20500;-76
2022/07/07 06:13:14;;;;;;;3.63;1.92;;;21.50;99.90;;;;;;5072502;28;20048;-75
2022/07/07 06:15:42;;;;;;;6.93;2.13;;;21.40;99.90;;;;;;5071994;28;20419;-75
2022/07/07 06:18:10;;;;;;;4.85;1.63;;;21.30;99.90;;;;;;5072059;28;20044;-75
2022/07/07 06:20:38;;;;;;;11.23;5.97;;;21.30;99.90;;;;;;5072437;28;20048;-75
2022/07/07 06:23:06;;;;;;;11.82;3.85;;;21.20;99.90;;;;;;5037144;28;20072;-75
2022/07/07 06:25:34;;;;;;;17.15;5.30;;;21.10;99.90;;;;;;5053894;28;20411;-78
2022/07/07 06:28:02;;;;;;;5.60;1.90;;;21.00;99.90;;;;;;5053298;28;20087;-75
2022/07/07 06:30:29;;;;;;;10.65;7.55;;;21.00;99.90;;;;;;5072127;28;20484;-75
2022/07/07 06:32:58;;;;;;;10.15;3.28;;;20.90;99.90;;;;;;5037441;28;20066;-75
2022/07/07 06:35:26;;;;;;;11.25;8.18;;;20.80;99.90;;;;;;5053945;28;20114;-75
2022/07/07 06:37:54;;;;;;;6.55;2.92;;;20.80;99.90;;;;;;5071736;28;20057;-75
2022/07/07 06:40:24;;;;;;;7.63;4.28;;;20.80;99.90;;;;;;5054727;28;20055;-75
2022/07/07 06:42:52;;;;;;;6.72;1.58;;;20.70;99.90;;;;;;5054129;28;20052;-75
2022/07/07 06:45:29;;;;;;;6.13;2.60;;;20.70;99.90;;;;;;5070058;28;20040;-75
2022/07/07 06:47:58;;;;;;;3.47;1.63;;;20.70;99.90;;;;;;5071565;28;20068;-75
2022/07/07 06:50:25;;;;;;;8.40;3.78;;;20.70;99.90;;;;;;5071601;28;20060;-74
2022/07/07 06:52:53;;;;;;;6.50;2.03;;;20.70;99.90;;;;;;5053626;28;20098;-74
2022/07/07 06:55:20;;;;;;;10.23;2.30;;;20.70;99.90;;;;;;5053429;28;20055;-75
2022/07/07 06:57:47;;;;;;;5.18;1.70;;;20.70;99.90;;;;;;5053153;28;20056;-75
2022/07/07 07:00:16;;;;;;;5.00;1.48;;;20.70;99.90;;;;;;5086646;28;20425;-74
2022/07/07 07:02:44;;;;;;;4.10;1.88;;;20.70;99.90;;;;;;5071329;28;20044;-75
2022/07/07 07:05:13;;;;;;;2.42;1.27;;;20.70;99.90;;;;;;5071443;28;20059;-74
2022/07/07 07:07:41;;;;;;;6.55;2.35;;;20.70;99.90;;;;;;5053436;28;20052;-74
2022/07/07 07:10:09;;;;;;;9.07;1.95;;;20.70;99.90;;;;;;5053187;28;20436;-75
2022/07/07 07:12:38;;;;;;;4.47;1.95;;;20.60;99.90;;;;;;5070945;28;20193;-76
2022/07/07 07:15:07;;;;;;;4.75;1.70;;;20.60;99.90;;;;;;5053177;28;20052;-74
2022/07/07 07:17:35;;;;;;;2.72;1.42;;;20.60;99.90;;;;;;5070707;28;20500;-75
2022/07/07 07:20:03;;;;;;;3.60;1.60;;;20.70;99.90;;;;;;5086685;28;20076;-75
2022/07/07 07:22:37;;;;;;;6.18;1.50;;;20.70;99.90;;;;;;5070930;28;20424;-75
2022/07/07 07:25:05;;;;;;;4.50;1.40;;;20.70;99.90;;;;;;5071003;28;20131;-74
2022/07/07 07:27:34;;;;;;;6.20;1.92;;;20.80;99.90;;;;;;5071005;28;20049;-74
2022/07/07 07:30:02;;;;;;;7.30;1.98;;;20.80;99.90;;;;;;5053086;28;20139;-74
2022/07/07 07:32:31;;;;;;;4.70;1.23;;;20.90;99.90;;;;;;5036682;28;20052;-75
2022/07/07 07:34:58;;;;;;;5.82;1.45;;;20.90;99.90;;;;;;5053050;28;20113;-75
2022/07/07 07:37:26;;;;;;;5.55;1.38;;;21.10;99.90;;;;;;5036044;28;20053;-75
2022/07/07 07:39:55;;;;;;;5.57;2.00;;;21.20;99.90;;;;;;5069871;28;20062;-77
2022/07/07 07:42:22;;;;;;;4.35;1.73;;;21.30;99.90;;;;;;5070226;28;20052;-75
2022/07/07 07:47:35;;;;;;;5.45;1.25;;;21.60;99.90;;;;;;5036455;28;20143;-75
2022/07/07 07:50:03;;;;;;;5.68;1.65;;;21.60;99.90;;;;;;5052907;28;20059;-76
2022/07/07 07:52:30;;;;;;;5.63;1.70;;;21.60;99.90;;;;;;5070535;28;20044;-75
2022/07/07 07:54:59;;;;;;;7.07;1.35;;;21.60;99.90;;;;;;5070366;28;20045;-76
2022/07/07 07:57:27;;;;;;;9.00;2.08;;;21.60;99.90;;;;;;5052055;28;20040;-75
2022/07/07 07:59:55;;;;;;;3.83;1.27;;;21.60;99.90;;;;;;5069929;28;20048;-76
2022/07/07 08:02:22;;;;;;;1.38;0.98;;;21.70;99.90;;;;;;5069731;28;20141;-76
2022/07/07 08:04:50;;;;;;;11.85;1.73;;;21.90;99.90;;;;;;5051970;28;20086;-75
2022/07/07 08:07:18;;;;;;;6.05;1.77;;;22.00;99.90;;;;;;5052295;28;20098;-77
2022/07/07 08:09:45;;;;;;;4.97;1.48;;;22.10;99.90;;;;;;5051662;28;20424;-75
2022/07/07 08:12:14;;;;;;;3.97;1.30;;;22.20;99.90;;;;;;5052014;28;20462;-74
2022/07/07 08:14:42;;;;;;;2.67;1.52;;;22.90;99.90;;;;;;5070067;28;20462;-75
2022/07/07 08:17:10;;;;;;;3.67;1.42;;;23.90;99.90;;;;;;5069985;28;20102;-75
2022/07/07 08:19:37;;;;;;;1.75;1.20;;;24.30;99.90;;;;;;5070236;28;20131;-75
2022/07/07 08:22:05;;;;;;;3.05;1.63;;;24.40;99.90;;;;;;5052355;28;20098;-75
2022/07/07 08:24:33;;;;;;;9.15;1.65;;;25.10;99.90;;;;;;5052251;28;20501;-76
2022/07/07 08:27:00;;;;;;;6.80;1.77;;;26.20;99.90;;;;;;5051996;28;20083;-76
2022/07/07 08:29:30;;;;;;;5.00;1.70;;;27.30;99.90;;;;;;5051979;28;20048;-77
2022/07/07 08:31:58;;;;;;;2.78;1.30;;;28.10;97.30;;;;;;5070489;28;20106;-77
2022/07/07 08:34:25;;;;;;;3.83;1.48;;;29.00;92.70;;;;;;5069873;28;20040;-75
2022/07/07 08:36:53;;;;;;;3.78;1.58;;;29.70;87.80;;;;;;5070183;28;20487;-75
2022/07/07 08:39:20;;;;;;;7.50;1.70;;;30.30;84.70;;;;;;5052440;28;20135;-76
2022/07/07 08:41:48;;;;;;;4.88;1.65;;;30.90;76.70;;;;;;5070377;28;20083;-75
2022/07/07 08:44:16;;;;;;;10.32;1.88;;;31.10;72.90;;;;;;5034149;28;20056;-76
2022/07/07 08:46:45;;;;;;;14.20;1.85;;;30.80;72.20;;;;;;5069244;28;20045;-76
2022/07/07 08:49:13;;;;;;;7.57;2.00;;;30.70;73.90;;;;;;5068422;28;20052;-75
2022/07/07 08:51:42;;;;;;;5.03;1.73;;;31.00;69.90;;;;;;5061035;28;20048;-76
2022/07/07 08:54:10;;;;;;;20.27;2.80;;;30.30;69.50;;;;;;5069672;28;20054;-78
2022/07/07 08:56:38;;;;;;;6.57;1.70;;;29.90;71.90;;;;;;5050815;28;20053;-76
2022/07/07 08:59:07;;;;;;;7.18;1.70;;;29.90;70.00;;;;;;5072781;28;20389;-76
2022/07/07 09:01:35;;;;;;;7.93;1.77;;;29.40;72.90;;;;;;5068827;28;20044;-76
2022/07/07 09:04:05;;;;;;;4.15;1.88;;;28.50;72.70;;;;;;5049327;28;20040;-76
2022/07/07 09:06:33;;;;;;;4.60;1.60;;;27.50;75.40;;;;;;5066749;28;20049;-76
2022/07/07 09:09:03;;;;;;;10.63;2.45;;;27.10;78.60;;;;;;5069628;28;20048;-78
2022/07/07 09:11:32;;;;;;;10.10;2.03;;;27.20;80.50;;;;;;5070884;28;20098;-77
2022/07/07 09:14:11;;;;;;;5.32;2.35;;;27.50;82.20;;;;;;5062133;28;20076;-77
2022/07/07 09:16:38;;;;;;;4.85;1.75;;;28.80;77.10;;;;;;5072512;28;20052;-75
2022/07/07 09:19:18;;;;;;;9.25;1.80;;;29.90;71.50;;;;;;5073549;28;20049;-78
2022/07/07 09:21:46;;;;;;;5.45;3.30;;;30.10;72.80;;;;;;5074276;28;20056;-78
2022/07/07 09:24:14;;;;;;;8.70;1.70;;;30.80;69.50;;;;;;5056426;28;20049;-78
2022/07/07 09:26:43;;;;;;;4.65;2.10;;;30.80;67.60;;;;;;5073080;28;20411;-79
2022/07/07 09:29:13;;;;;;;9.75;2.25;;;29.60;66.60;;;;;;5051401;28;20057;-77
2022/07/07 09:31:54;;;;;;;4.43;2.13;;;28.30;71.40;;;;;;5054332;28;20099;-78
2022/07/07 09:34:26;;;;;;;5.93;1.70;;;27.30;74.50;;;;;;5037044;28;20498;-77
2022/07/07 09:39:45;;;;;;;9.65;2.33;;;26.20;79.50;;;;;;5054622;28;20190;-78
2022/07/07 09:42:22;;;;;;;8.70;2.50;;;25.80;81.50;;;;;;5037986;28;20052;-78
2022/07/07 09:44:51;;;;;;;13.20;2.53;;;25.50;84.40;;;;;;5054347;28;20124;-77
2022/07/07 09:47:20;;;;;;;7.60;2.10;;;25.20;85.40;;;;;;5053437;28;20390;-78
2022/07/07 09:50:01;;;;;;;4.80;2.10;;;24.90;86.30;;;;;;5052685;28;20072;-78
2022/07/07 09:52:32;;;;;;;9.38;2.20;;;24.70;85.50;;;;;;5052359;28;20053;-78
2022/07/07 09:55:03;;;;;;;7.78;2.67;;;24.70;86.40;;;;;;5036016;28;20055;-78
2022/07/07 09:57:30;;;;;;;9.25;1.98;;;24.60;87.10;;;;;;5070819;28;20062;-79
2022/07/07 09:59:58;;;;;;;6.07;1.60;;;24.50;89.20;;;;;;5070985;28;20409;-77
2022/07/07 10:02:29;;;;;;;2.80;1.08;;;24.50;86.20;;;;;;5072221;28;20049;-77
2022/07/07 10:05:07;;;;;;;2.80;1.20;;;24.50;82.00;;;;;;5072714;28;20145;-78
2022/07/07 10:07:38;;;;;;;3.65;1.20;;;24.60;80.80;;;;;;5071722;28;20052;-77
2022/07/07 10:10:08;;;;;;;2.42;1.63;;;24.60;80.50;;;;;;5054872;28;20048;-78
2022/07/07 10:12:45;;;;;;;2.92;1.65;;;24.80;81.20;;;;;;5054768;28;20044;-79
2022/07/07 10:15:13;;;;;;;3.58;1.27;;;25.10;81.00;;;;;;5072432;28;20048;-77
2022/07/07 10:17:43;;;;;;;4.50;1.67;;;25.40;81.10;;;;;;5072044;28;20054;-78
2022/07/07 10:20:15;;;;;;;3.13;1.40;;;25.70;80.90;;;;;;5072052;28;20147;-78
2022/07/07 10:22:45;;;;;;;6.70;1.63;;;25.80;79.20;;;;;;5054647;28;20412;-78
2022/07/07 10:25:15;;;;;;;3.85;1.20;;;25.90;75.80;;;;;;5072795;28;20052;-78
2022/07/07 10:27:43;;;;;;;4.13;1.75;;;25.70;75.20;;;;;;5037904;28;20524;-77
2022/07/07 10:30:28;;;;;;;3.35;1.15;;;25.60;74.80;;;;;;5072112;28;20044;-78
2022/07/07 10:33:01;;;;;;;3.20;1.02;;;25.60;75.60;;;;;;5054300;28;20040;-77
2022/07/07 10:35:41;;;;;;;2.22;1.00;;;25.50;73.40;;;;;;5072483;28;20048;-78
2022/07/07 10:38:13;;;;;;;4.53;1.30;;;25.60;76.20;;;;;;5055085;28;20059;-78
2022/07/07 10:40:51;;;;;;;5.27;1.30;;;25.90;73.50;;;;;;5072389;28;20056;-75
2022/07/07 10:43:28;;;;;;;1.48;0.98;;;27.10;72.00;;;;;;5053911;28;20097;-78
2022/07/07 10:45:56;;;;;;;2.42;1.20;;;28.30;69.20;;;;;;5053948;28;20049;-78
2022/07/07 10:48:44;;;;;;;1.33;0.90;;;29.30;67.40;;;;;;5054136;28;20126;-78
2022/07/07 10:51:21;;;;;;;3.42;1.00;;;29.00;61.40;;;;;;5053725;28;20548;-77
2022/07/07 10:53:57;;;;;;;3.90;1.02;;;28.20;63.40;;;;;;5053563;28;20514;-78
2022/07/07 10:56:25;;;;;;;3.35;1.30;;;27.40;66.40;;;;;;5053719;28;20052;-78
2022/07/07 10:58:54;;;;;;;1.23;1.08;;;26.60;68.50;;;;;;5053851;28;20040;-78
2022/07/07 11:01:22;;;;;;;6.85;1.50;;;26.00;70.70;;;;;;5071572;28;20506;-78
2022/07/07 11:03:49;;;;;;;6.78;1.90;;;25.40;74.50;;;;;;5036900;28;20143;-78
2022/07/07 11:06:17;;;;;;;11.77;1.90;;;24.60;83.70;;;;;;5053290;28;20492;-78
2022/07/07 11:08:56;;;;;;;8.20;2.30;;;23.70;90.60;;;;;;5053288;28;20133;-78
2022/07/07 11:11:24;;;;;;;6.07;1.63;;;22.90;95.20;;;;;;5071149;28;20106;-78
2022/07/07 11:14:04;;;;;;;2.13;1.58;;;22.30;99.90;;;;;;5036906;28;20080;-77
2022/07/07 11:16:34;;;;;;;4.97;1.13;;;21.90;99.90;;;;;;5053534;28;20052;-78
2022/07/07 11:19:04;;;;;;;5.28;2.28;;;21.40;99.90;;;;;;5053376;28;20052;-79
2022/07/07 11:21:36;;;;;;;5.88;2.30;;;21.00;99.90;;;;;;5071553;28;20080;-78
2022/07/07 11:24:14;;;;;;;5.68;1.92;;;20.70;99.90;;;;;;5070996;28;20144;-78
2022/07/07 11:26:42;;;;;;;3.38;1.40;;;20.40;99.90;;;;;;5071538;28;20056;-78
2022/07/07 11:29:12;;;;;;;4.70;1.80;;;20.10;99.90;;;;;;5053798;28;20467;-78
2022/07/07 11:31:39;;;;;;;3.33;1.40;;;19.70;99.90;;;;;;5070787;28;20052;-78
2022/07/07 11:34:07;;;;;;;2.70;1.40;;;19.50;99.90;;;;;;5071512;28;20417;-77
2022/07/07 11:36:34;;;;;;;6.05;2.00;;;19.40;99.90;;;;;;5070942;28;20056;-76
2022/07/07 11:39:09;;;;;;;6.38;1.52;;;19.40;99.90;;;;;;5070989;28;20465;-79
2022/07/07 11:41:40;;;;;;;6.38;1.98;;;19.40;99.90;;;;;;5071460;28;20052;-75
2022/07/07 11:44:17;;;;;;;2.25;1.45;;;19.40;99.90;;;;;;5053224;28;20060;-77
2022/07/07 11:46:47;;;;;;;3.00;2.17;;;19.40;99.90;;;;;;5053017;28;20064;-77
2022/07/07 11:49:16;;;;;;;5.40;1.95;;;19.50;99.90;;;;;;5070928;28;20063;-78
2022/07/07 11:51:47;;;;;;;4.22;1.83;;;19.60;99.90;;;;;;5052707;28;20049;-77
2022/07/07 11:54:18;;;;;;;3.58;1.83;;;19.70;99.90;;;;;;5071052;28;20053;-75
2022/07/07 11:56:45;;;;;;;5.15;2.17;;;19.80;99.90;;;;;;5052568;28;20487;-77
2022/07/07 11:59:13;;;;;;;3.42;2.05;;;19.90;99.90;;;;;;5052329;28;20466;-76
2022/07/07 12:01:41;;;;;;;5.35;2.28;;;20.10;99.90;;;;;;5070258;28;20131;-77
2022/07/07 12:04:16;;;;;;;4.53;2.40;;;20.20;99.90;;;;;;5070669;28;20052;-77
2022/07/07 12:06:44;;;;;;;4.97;2.20;;;20.20;99.90;;;;;;5052686;28;20048;-78
2022/07/07 12:09:12;;;;;;;6.22;2.90;;;20.30;99.90;;;;;;5070987;28;20040;-76
2022/07/07 12:11:42;;;;;;;3.75;2.42;;;20.30;99.90;;;;;;5036277;28;20143;-77
2022/07/07 12:14:11;;;;;;;4.47;2.42;;;20.40;99.90;;;;;;5070534;28;20102;-76
2022/07/07 12:16:47;;;;;;;6.25;2.90;;;20.40;99.90;;;;;;5069697;28;20071;-77
2022/07/07 12:19:15;;;;;;;7.57;3.15;;;20.50;99.90;;;;;;5070535;28;20064;-78
2022/07/07 12:21:44;;;;;;;8.15;3.65;;;20.60;99.90;;;;;;5052351;28;20097;-76
2022/07/07 12:24:16;;;;;;;7.50;3.10;;;20.60;99.90;;;;;;5034267;28;20057;-76
2022/07/07 12:26:48;;;;;;;4.83;3.67;;;20.70;99.90;;;;;;5070560;28;20550;-78
2022/07/07 12:29:16;;;;;;;5.50;3.00;;;20.80;99.90;;;;;;5050794;28;20048;-76
2022/07/07 12:31:44;;;;;;;1.90;1.42;;;21.00;99.90;;;;;;5068634;28;20117;-76
2022/07/07 12:34:12;;;;;;;1.65;1.55;;;21.20;99.90;;;;;;5035032;28;20155;-77
2022/07/07 12:36:41;;;;;;;3.72;1.42;;;21.50;99.90;;;;;;5051455;28;20139;-77
2022/07/07 12:39:08;;;;;;;4.22;1.60;;;21.70;99.90;;;;;;5050284;28;20376;-77
2022/07/07 12:41:37;;;;;;;4.03;1.23;;;21.90;99.90;;;;;;5052397;28;20484;-77
2022/07/07 12:44:17;;;;;;;10.10;2.45;;;22.20;99.90;;;;;;5076152;28;20041;-76
2022/07/07 12:46:45;;;;;;;2.53;1.50;;;22.40;99.90;;;;;;5066352;28;20040;-76
2022/07/07 12:49:13;;;;;;;3.55;1.35;;;22.60;99.90;;;;;;5056852;28;20044;-77
2022/07/07 12:51:44;;;;;;;5.60;1.63;;;22.80;99.90;;;;;;5062524;28;20393;-77
2022/07/07 12:54:22;;;;;;;6.68;1.90;;;23.10;99.90;;;;;;5053038;28;20049;-78
2022/07/07 12:56:58;;;;;;;16.08;12.70;;;23.90;99.90;;;;;;5061598;28;20135;-77